Time,TemperatureF,DewpointF,PressureIn,WindDirection,WindDirectionDegrees,WindSpeedMPH,WindSpeedGustMPH,Humidity,HourlyPrecipIn,Conditions,Clouds,dailyrainin,SoftwareType,DateUTC
2013-09-22 00:12:00,59.0,32.0,-100.00,SSW,194,5.0,8.0,34,-99.99,,,-99.99,,2013-09-22 06:12:00,
2013-09-22 00:22:00,60.0,32.0,-100.00,South,191,4.0,10.0,33,-99.99,,,-99.99,,2013-09-22 06:22:00,
2013-09-22 00:42:00,58.0,32.0,-100.00,South,172,7.0,13.0,36,-99.99,,,-99.99,,2013-09-22 06:42:00,
2013-09-22 01:11:00,62.0,32.0,-100.00,South,179,7.0,11.0,31,-99.99,,,-99.99,,2013-09-22 07:11:00,
2013-09-22 01:42:00,59.0,34.0,-100.00,SW,223,3.0,10.0,39,-99.99,,,-99.99,,2013-09-22 07:42:00,
2013-09-22 02:42:00,65.0,29.0,-100.00,South,189,2.0,10.0,25,-99.99,,,-99.99,,2013-09-22 08:42:00,
2013-09-22 03:11:00,66.0,28.0,-100.00,West,261,5.0,13.0,23,-99.99,,,-99.99,,2013-09-22 09:11:00,
2013-09-22 04:44:00,64.0,29.0,-100.00,SW,217,3.0,20.0,26,-99.99,,,-99.99,,2013-09-22 10:44:00,
2013-09-22 06:21:00,61.0,29.0,-100.00,SSW,208,3.0,7.0,29,-99.99,,,-99.99,,2013-09-22 12:21:00,
2013-09-22 06:42:00,63.0,30.0,-100.00,SW,231,6.0,18.0,28,-99.99,,,-99.99,,2013-09-22 12:42:00,
2013-09-22 06:52:00,61.0,26.0,-100.00,NNE,19,3.0,8.0,26,-99.99,,,-99.99,,2013-09-22 12:52:00,
2013-09-22 07:21:00,63.0,28.0,-100.00,WSW,256,6.0,18.0,26,-99.99,,,-99.99,,2013-09-22 13:21:00,
2013-09-22 07:42:00,57.0,31.0,-100.00,SW,233,3.0,8.0,36,-99.99,,,-99.99,,2013-09-22 13:42:00,
2013-09-22 08:42:00,61.0,32.0,-100.00,WSW,246,6.0,9.0,33,-99.99,,,-99.99,,2013-09-22 14:42:00,
2013-09-22 09:23:00,62.0,31.0,-100.00,North,7,6.0,11.0,30,-99.99,,,-99.99,,2013-09-22 15:23:00,
2013-09-22 10:24:00,61.0,30.0,-100.00,North,6,8.0,20.0,31,-99.99,,,-99.99,,2013-09-22 16:24:00,
2013-09-22 10:43:00,61.0,31.0,-100.00,SE,127,6.0,19.0,31,-99.99,,,-99.99,,2013-09-22 16:43:00,
2013-09-22 11:12:00,63.0,29.0,-100.00,NNE,27,2.0,10.0,27,-99.99,,,-99.99,,2013-09-22 17:12:00,
2013-09-22 11:42:00,64.0,29.0,-100.00,North,349,9.0,23.0,26,-99.99,,,-99.99,,2013-09-22 17:42:00,
2013-09-22 12:12:00,61.0,28.0,-100.00,WNW,289,12.0,19.0,29,-99.99,,,-99.99,,2013-09-22 18:12:00,
2013-09-22 12:22:00,61.0,26.0,-100.00,SE,139,3.0,21.0,26,-99.99,,,-99.99,,2013-09-22 18:22:00,
2013-09-22 12:42:00,62.0,35.0,-100.00,North,6,7.0,15.0,35,-99.99,,,-99.99,,2013-09-22 18:42:00,
2013-09-22 13:42:00,61.0,34.0,-100.00,NNW,345,14.0,20.0,35,-99.99,,,-99.99,,2013-09-22 19:42:00,
2013-09-22 14:12:00,62.0,34.0,-100.00,NNW,347,11.0,23.0,35,-99.99,,,-99.99,,2013-09-22 20:12:00,
2013-09-22 14:42:00,62.0,33.0,-100.00,North,358,8.0,13.0,34,-99.99,,,-99.99,,2013-09-22 20:42:00,
2013-09-22 15:12:00,61.0,33.0,-100.00,North,355,8.0,20.0,33,-99.99,,,-99.99,,2013-09-22 21:12:00,
2013-09-22 15:44:00,62.0,34.0,-100.00,NNW,343,12.0,17.0,34,-99.99,,,-99.99,,2013-09-22 21:44:00,
2013-09-22 16:24:00,63.0,34.0,-100.00,North,349,9.0,16.0,33,-99.99,,,-99.99,,2013-09-22 22:24:00,
2013-09-22 16:43:00,63.0,34.0,-100.00,NNW,336,11.0,16.0,33,-99.99,,,-99.99,,2013-09-22 22:43:00,
2013-09-22 17:12:00,62.0,33.0,-100.00,NNW,335,10.0,16.0,33,-99.99,,,-99.99,,2013-09-22 23:12:00,
2013-09-22 17:42:00,61.0,32.0,-100.00,NNW,338,11.0,16.0,33,-99.99,,,-99.99,,2013-09-22 23:42:00,
2013-09-22 18:22:00,60.0,34.0,-100.00,NNW,328,6.0,9.0,37,-99.99,,,-99.99,,2013-09-23 00:22:00,
2013-09-22 18:42:00,60.0,33.0,-100.00,WSW,243,3.0,14.0,37,-99.99,,,-99.99,,2013-09-23 00:42:00,
2013-09-22 19:12:00,57.0,34.0,-100.00,West,261,6.0,11.0,42,-99.99,,,-99.99,,2013-09-23 01:12:00,
2013-09-22 19:22:00,57.0,34.0,-100.00,NNW,338,9.0,13.0,41,-99.99,,,-99.99,,2013-09-23 01:22:00,
2013-09-22 19:43:00,55.0,36.0,-100.00,North,0,5.0,13.0,48,-99.99,,,-99.99,,2013-09-23 01:43:00,
2013-09-22 20:22:00,53.0,38.0,-100.00,SE,143,3.0,10.0,56,-99.99,,,-99.99,,2013-09-23 02:22:00,
2013-09-22 20:42:00,51.0,38.0,-100.00,South,177,6.0,7.0,60,-99.99,,,-99.99,,2013-09-23 02:42:00,
2013-09-22 21:12:00,55.0,34.0,-100.00,WSW,258,4.0,13.0,45,-99.99,,,-99.99,,2013-09-23 03:12:00,
2013-09-22 21:22:00,55.0,33.0,-100.00,WSW,244,4.0,12.0,43,-99.99,,,-99.99,,2013-09-23 03:22:00,
2013-09-22 21:44:00,55.0,34.0,-100.00,WSW,246,5.0,12.0,44,-99.99,,,-99.99,,2013-09-23 03:44:00,
2013-09-22 22:43:00,55.0,34.0,-100.00,NNW,348,9.0,14.0,46,-99.99,,,-99.99,,2013-09-23 04:43:00,
2013-09-22 23:12:00,55.0,34.0,-100.00,North,355,8.0,11.0,45,-99.99,,,-99.99,,2013-09-23 05:12:00,
2013-09-22 23:43:00,54.0,32.0,-100.00,North,350,13.0,17.0,43,-99.99,,,-99.99,,2013-09-23 05:43:00,